Latest Weather Observations for Bulman

IDD60801

Issued at 3:05 pm CST Tuesday 21 October 2014 (issued every 30 minutes, with the page automatically refreshed every 10 minutes)

About weather observations | Map of weather stations | Latest weather observations for NT | Other Formats
Station Details ID: 014627 Name: BULMAN Lat: -13.67 Lon: 134.34 Height: 103.4 m
Data from the previous 72 hours. | See also: Recent months for locations in Northern Territory
Date/Time
CST
Temp
°C
App
Temp
°C
Dew
Point
Rel
Hum
%
Delta-T
°C
Wind Press
QNH
hPa
Press
MSL
hPa
Rain
since 9 am
mm
Dir
 
Spd
km/h
Gust
km/h
Spd
kts
Gust
kts
21/03:00pm 36.9 33.1 6.0 15 17.0 ESE 15 26 8 14 1011.8 1011.1 0.0
21/02:30pm 37.0 32.7 5.1 14 17.4 E 17 32 9 17 1012.3 1011.6 0.0
21/02:00pm 36.2 32.3 3.4 13 17.3 ESE 13 24 7 13 1012.6 1011.9 0.0
21/01:30pm 37.2 33.5 4.2 13 17.7 ESE 13 20 7 11 1013.2 1012.5 0.0
21/01:00pm 35.2 31.4 3.7 14 16.6 SSE 13 19 7 10 1013.9 1013.2 0.0
21/12:30pm 35.7 32.3 4.1 14 16.8 ENE 11 22 6 12 1014.5 1013.8 0.0
21/12:00pm 35.3 31.9 3.8 14 16.6 SE 11 24 6 13 1015.1 1014.4 0.0
21/11:30am 34.4 30.8 5.0 16 15.7 E 13 22 7 12 1015.6 1014.9 0.0
21/11:00am 34.1 30.0 6.4 18 15.1 E 17 26 9 14 1016.0 1015.3 0.0
21/10:30am 33.4 29.9 10.1 24 13.4 E 19 30 10 16 1016.5 1015.7 0.0
21/10:00am 32.1 29.0 10.2 26 12.6 E 17 24 9 13 1016.8 1016.0 0.0
21/09:30am 31.4 30.1 13.6 33 10.7 ENE 13 22 7 12 1016.9 1016.1 0.0
21/09:00am 29.3 30.8 18.1 51 7.2 ESE 7 15 4 8 1016.9 1016.1 0.0
21/08:30am 27.6 30.3 20.2 64 4.9 ENE 6 9 3 5 1016.9 1016.1 0.0
21/08:00am 26.8 30.0 21.3 72 3.7 NE 6 9 3 5 1016.7 1015.9 0.0
21/07:30am 25.0 28.5 21.1 79 2.6 SE 4 7 2 4 1016.2 1015.5 0.0
21/07:00am 22.9 27.3 21.4 91 1.0 CALM 0 0 0 0 1015.8 1015.1 0.0
21/06:30am 20.6 24.1 19.6 94 0.6 CALM 0 0 0 0 1015.5 1014.8 0.0
21/06:00am 20.4 23.7 19.1 92 0.8 CALM 0 0 0 0 1015.2 1014.5 0.0
21/05:30am 20.7 24.2 19.5 93 0.8 CALM 0 0 0 0 1014.9 1014.2 0.0
21/05:00am 21.0 24.5 19.6 92 0.9 CALM 0 6 0 3 1014.5 1013.8 0.0
21/04:30am 21.2 24.3 19.5 90 1.1 NW 2 6 1 3 1014.1 1013.4 0.0
21/04:00am 21.6 25.0 20.2 92 0.9 WNW 2 6 1 3 1014.0 1013.3 0.0
21/03:30am 21.4 24.5 19.5 89 1.2 NNW 2 6 1 3 1014.0 1013.3 0.0
21/03:00am 21.8 24.3 19.9 89 1.2 NNW 6 7 3 4 1013.9 1013.2 0.0
21/02:30am 22.4 26.3 20.3 88 1.4 CALM 0 7 0 4 1014.0 1013.3 0.0
21/02:00am 22.8 26.7 20.3 86 1.6 CALM 0 0 0 0 1014.5 1013.8 0.0
21/01:30am 23.5 26.9 21.0 86 1.6 NNE 4 7 2 4 1014.6 1013.9 0.0
21/01:00am 23.5 27.2 20.0 81 2.3 NNE 0 0 0 0 1015.0 1014.3 0.0
21/12:30am 24.6 28.5 21.1 81 2.3 ENE 2 6 1 3 1015.3 1014.6 0.0
21/12:00am 25.4 28.2 21.5 79 2.6 ENE 9 13 5 7 1015.5 1014.8 0.0
 
Date/Time
CST
Temp
°C
App
Temp
°C
Dew
Point
Rel
Hum
%
Delta-T
°C
Wind Press
QNH
hPa
Press
MSL
hPa
Rain
since 9 am
mm
Dir
 
Spd
km/h
Gust
km/h
Spd
kts
Gust
kts
20/11:30pm 25.9 27.8 21.3 76 3.1 SE 13 22 7 12 1015.9 1015.2 0.0
20/11:00pm 26.4 27.9 21.2 73 3.5 ESE 15 26 8 14 1015.9 1015.2 0.0
20/10:30pm 27.0 28.9 20.6 68 4.2 ESE 11 19 6 10 1015.7 1015.0 0.0
20/10:00pm 27.7 28.6 20.0 63 5.0 SE 15 28 8 15 1015.4 1014.7 0.0
20/09:30pm 28.8 28.6 18.6 54 6.6 ESE 17 28 9 15 1014.9 1014.2 0.0
20/09:00pm 29.4 29.5 15.5 43 8.6 ESE 9 17 5 9 1014.3 1013.6 0.0
20/08:30pm 30.2 28.8 13.5 36 10.0 E 13 24 7 13 1013.9 1013.2 0.0
20/08:00pm 30.9 29.2 12.3 32 11.0 E 13 20 7 11 1013.3 1012.6 0.0
20/07:30pm 31.4 29.2 12.2 30 11.4 E 15 26 8 14 1012.7 1012.0 0.0
20/07:00pm 32.0 30.3 12.3 30 11.7 ENE 13 20 7 11 1012.2 1011.5 0.0
20/06:30pm 32.8 29.6 11.3 27 12.6 E 19 30 10 16 1011.7 1011.0 0.0
20/06:00pm 33.7 31.2 10.9 25 13.4 E 15 24 8 13 1011.2 1010.5 0.0
20/05:30pm 34.6 31.5 10.4 23 14.1 ENE 17 28 9 15 1010.8 1010.1 0.0
20/05:00pm 35.5 32.6 9.8 21 14.9 E 15 26 8 14 1010.6 1009.8 0.0
20/04:30pm 35.7 32.7 9.3 20 15.2 ESE 15 26 8 14 1010.4 1009.6 0.0
20/04:00pm 35.7 32.7 9.3 20 15.2 ENE 15 24 8 13 1010.4 1009.6 0.0
20/03:30pm 36.2 32.9 9.7 20 15.4 ENE 17 26 9 14 1010.6 1009.8 0.0
20/03:00pm 36.4 32.2 7.4 17 16.3 E 19 30 10 16 1011.1 1010.4 0.0
20/02:30pm 36.4 32.6 7.4 17 16.3 E 17 30 9 16 1011.5 1010.8 0.0
20/02:00pm 36.7 32.6 7.7 17 16.4 SE 19 32 10 17 1011.9 1011.2 0.0
20/01:30pm 36.1 32.2 7.2 17 16.2 SE 17 26 9 14 1012.4 1011.7 0.0
20/01:00pm 35.9 32.9 7.9 18 15.8 ENE 13 24 7 13 1013.0 1012.3 0.0
20/12:30pm 36.2 32.7 7.3 17 16.2 NE 15 22 8 12 1013.8 1013.1 0.0
20/12:00pm 35.5 31.1 7.5 18 15.7 ENE 20 32 11 17 1014.5 1013.8 0.0
20/11:30am 34.7 30.6 7.7 19 15.1 ENE 19 26 10 14 1015.0 1014.3 0.0
20/11:00am 34.4 30.4 8.2 20 14.8 ESE 19 28 10 15 1015.3 1014.6 0.0
20/10:30am 34.0 30.5 8.6 21 14.4 ENE 17 26 9 14 1015.6 1014.9 0.0
20/10:00am 32.9 29.8 9.0 23 13.5 E 15 22 8 12 1015.9 1015.2 0.0
20/09:30am 31.8 29.9 10.5 27 12.3 E 11 15 6 8 1016.1 1015.4 0.0
20/09:00am 29.3 30.1 15.8 44 8.4 ENE 6 9 3 5 1016.0 1015.3 0.0
20/08:30am 27.5 29.6 19.0 59 5.5 NNE 6 9 3 5 1016.1 1015.4 0.0
20/08:00am 25.3 29.3 20.5 75 3.1 CALM 0 0 0 0 1015.7 1015.0 0.0
20/07:30am 23.2 27.4 20.9 87 1.5 CALM 0 0 0 0 1015.6 1014.9 0.0
20/07:00am 20.8 24.4 19.8 94 0.6 CALM 0 0 0 0 1015.3 1014.6 0.0
20/06:30am 19.7 22.9 18.9 95 0.5 CALM 0 0 0 0 1015.2 1014.5 0.0
20/06:00am 20.0 23.3 19.0 94 0.6 CALM 0 2 0 1 1014.9 1014.2 0.0
20/05:30am 20.5 24.0 19.5 94 0.6 CALM 0 0 0 0 1014.5 1013.8 0.0
20/05:00am 20.7 23.7 19.2 91 1.0 WSW 2 7 1 4 1014.3 1013.6 0.0
20/04:30am 21.5 25.1 19.8 90 1.1 CALM 0 0 0 0 1014.3 1013.6 0.0
20/04:00am 22.4 25.2 20.5 89 1.2 S 6 7 3 4 1014.1 1013.4 0.0
20/03:30am 22.8 25.9 21.1 90 1.1 E 6 9 3 5 1013.9 1013.2 0.0
20/03:00am 22.7 25.4 20.2 86 1.6 E 6 9 3 5 1013.8 1013.1 0.0
20/02:30am 23.6 26.4 20.9 85 1.8 NNE 7 13 4 7 1013.6 1012.9 0.0
20/02:00am 24.1 26.2 21.0 83 2.0 ESE 11 17 6 9 1014.6 1013.9 0.0
20/01:30am 24.3 27.2 21.0 82 2.2 ESE 7 15 4 8 1014.7 1014.0 0.0
20/01:00am 24.7 26.8 21.0 80 2.4 E 11 17 6 9 1014.9 1014.2 0.0
20/12:30am 25.3 27.0 21.0 77 2.8 E 13 20 7 11 1015.1 1014.4 0.0
20/12:00am 25.7 28.2 21.1 76 3.0 E 9 19 5 10 1015.5 1014.8 0.0
 
Date/Time
CST
Temp
°C
App
Temp
°C
Dew
Point
Rel
Hum
%
Delta-T
°C
Wind Press
QNH
hPa
Press
MSL
hPa
Rain
since 9 am
mm
Dir
 
Spd
km/h
Gust
km/h
Spd
kts
Gust
kts
19/11:30pm 26.0 28.5 21.0 74 3.3 ESE 9 13 5 7 1015.6 1014.9 0.0
19/11:00pm 26.5 28.6 21.0 72 3.6 ESE 11 17 6 9 1015.7 1015.0 0.0
19/10:30pm 26.9 28.6 21.0 70 3.9 SE 13 17 7 9 1015.6 1014.9 0.0
19/10:00pm 27.6 29.8 21.2 68 4.3 SE 11 20 6 11 1015.4 1014.7 0.0
19/09:30pm 28.0 29.6 20.8 65 4.8 ESE 13 26 7 14 1014.9 1014.2 0.0
19/09:00pm 28.6 29.9 20.9 63 5.1 ESE 15 20 8 11 1014.5 1013.8 0.0
19/08:30pm 29.1 29.4 20.5 59 5.7 ESE 19 28 10 15 1014.0 1013.3 0.0
19/08:00pm 29.6 29.6 20.2 57 6.2 ESE 20 35 11 19 1013.4 1012.7 0.0
19/07:30pm 30.9 30.3 18.9 48 7.8 ESE 20 43 11 23 1012.8 1012.1 0.0
19/07:00pm 32.8 30.9 11.9 28 12.4 E 13 22 7 12 1012.0 1011.3 0.0
19/06:30pm 33.4 31.0 11.3 26 13.0 E 15 20 8 11 1011.7 1011.0 0.0
19/06:00pm 34.0 31.5 11.2 25 13.4 E 15 22 8 12 1011.4 1010.7 0.0
19/05:30pm 35.1 32.9 10.9 23 14.3 E 13 22 7 12 1011.0 1010.3 0.0
19/05:00pm 35.5 32.7 11.2 23 14.4 E 17 26 9 14 1010.8 1010.1 0.0
19/04:30pm 36.4 34.1 10.6 21 15.2 ENE 13 20 7 11 1010.6 1009.8 0.0
19/04:00pm 34.8 32.3 11.2 24 13.9 ENE 15 26 8 14 1010.7 1009.9 0.0
19/03:30pm 36.1 34.7 12.3 24 14.4 SSE 11 19 6 10 1010.8 1010.1 0.0
19/03:00pm 36.3 34.6 12.5 24 14.4 NE 13 20 7 11 1011.1 1010.4 0.0
19/02:30pm 36.3 33.1 11.2 22 14.9 ENE 19 28 10 15 1011.5 1010.8 0.0
19/02:00pm 35.5 34.4 11.8 24 14.2 NE 9 19 5 10 1011.9 1011.2 0.0
19/01:30pm 35.1 32.7 11.5 24 14.0 NE 15 26 8 14 1012.3 1011.6 0.0
19/01:00pm 36.2 33.9 13.0 24 14.1 E 17 33 9 18 1012.9 1012.2 0.0
19/12:30pm 35.7 34.3 14.4 28 13.2 E 15 24 8 13 1013.4 1012.7 0.0
19/12:00pm 35.3 34.5 16.1 32 12.2 ENE 15 22 8 12 1014.0 1013.3 0.0
19/11:30am 32.7 31.5 16.1 37 10.5 E 17 26 9 14 1014.7 1014.0 0.0
19/11:00am 32.2 32.4 17.7 42 9.3 E 13 19 7 10 1015.2 1014.5 0.0
19/10:30am 32.3 33.0 18.8 44 8.8 ENE 13 20 7 11 1015.4 1014.7 0.0
19/10:00am 31.4 32.1 19.7 49 7.7 NE 15 26 8 14 1015.4 1014.7 0.0
19/09:30am 29.4 32.4 20.8 60 5.7 ENE 6 13 3 7 1015.6 1014.9 0.0
19/09:00am 28.0 29.5 19.8 61 5.4 NNE 11 17 6 9 1015.9 1015.2 0.0
19/08:30am 28.0 30.3 21.3 67 4.5 ENE 11 20 6 11 1015.8 1015.1 0.0
19/08:00am 26.3 29.0 20.6 71 3.8 NE 7 9 4 5 1015.6 1014.9 0.0
19/07:30am 25.6 28.1 20.2 72 3.5 E 7 13 4 7 1015.2 1014.5 0.0
19/07:00am 24.0 28.1 20.7 82 2.2 CALM 0 6 0 3 1014.5 1013.8 0.0
19/06:30am 21.2 24.5 19.1 88 1.3 CALM 0 0 0 0 1013.8 1013.1 0.0
19/06:00am 21.2 24.5 19.1 88 1.3 CALM 0 0 0 0 1013.5 1012.8 0.0
19/05:30am 21.7 23.9 19.1 85 1.7 N 6 9 3 5 1013.3 1012.6 0.0
19/05:00am 22.3 25.8 19.5 84 1.8 CALM 0 0 0 0 1013.2 1012.5 0.0
19/04:30am 22.8 26.2 19.4 81 2.2 CALM 0 2 0 1 1013.1 1012.4 0.0
19/04:00am 23.3 26.7 20.1 82 2.1 NNW 2 9 1 5 1013.0 1012.3 0.0
19/03:30am 23.8 26.6 19.7 78 2.6 NNW 4 7 2 4 1012.9 1012.2 0.0
19/03:00am 24.8 28.9 20.7 78 2.7 CALM 0 0 0 0 1013.0 1012.3 0.0
19/02:30am 25.5 28.7 21.2 77 2.9 E 6 7 3 4 1013.2 1012.5 0.0
19/02:00am 26.0 29.2 21.2 75 3.2 E 6 9 3 5 1013.5 1012.8 0.0
19/01:30am 26.3 29.3 20.8 71 3.6 E 6 9 3 5 1013.8 1013.1 0.0
19/01:00am 26.6 29.2 20.4 69 4.1 E 7 9 4 5 1014.1 1013.4 0.0
19/12:30am 27.0 29.4 20.1 66 4.5 ENE 7 11 4 6 1014.3 1013.6 0.0
19/12:00am 27.4 29.6 19.7 63 5.0 ENE 7 11 4 6 1014.6 1013.9 0.0
 
Date/Time
CST
Temp
°C
App
Temp
°C
Dew
Point
Rel
Hum
%
Delta-T
°C
Wind Press
QNH
hPa
Press
MSL
hPa
Rain
since 9 am
mm
Dir
 
Spd
km/h
Gust
km/h
Spd
kts
Gust
kts
18/11:30pm 27.7 29.9 19.2 60 5.5 NE 6 11 3 6 1014.7 1014.0 0.0
18/11:00pm 28.1 29.7 19.1 58 5.8 ENE 9 13 5 7 1014.8 1014.1 0.0
18/10:30pm 28.5 29.3 19.1 56 6.1 ENE 13 24 7 13 1014.7 1014.0 0.0
18/10:00pm 29.1 30.2 18.8 53 6.7 ENE 11 17 6 9 1014.6 1013.9 0.0
18/09:30pm 29.9 30.4 18.3 49 7.5 ENE 13 22 7 12 1014.2 1013.5 0.0
18/09:00pm 30.4 30.7 17.8 46 8.1 E 13 22 7 12 1013.7 1013.0 0.0
18/08:30pm 31.0 29.9 17.3 43 8.7 E 19 28 10 15 1013.2 1012.5 0.0
18/08:00pm 31.7 29.8 15.2 36 10.2 E 19 28 10 15 1012.7 1012.0 0.0
18/07:30pm 32.4 30.4 15.0 35 10.8 E 19 28 10 15 1012.3 1011.6 0.0
18/07:00pm 33.3 30.9 14.4 32 11.6 ESE 20 33 11 18 1011.6 1010.9 0.0
18/06:30pm 34.7 33.0 12.4 26 13.4 ESE 13 20 7 11 1010.9 1010.2 0.0
18/06:00pm 35.6 33.0 10.6 22 14.7 E 15 20 8 11 1010.5 1009.7 0.0
18/05:30pm 36.4 33.9 9.8 20 15.5 ESE 13 20 7 11 1010.0 1009.2 0.0
18/05:00pm 37.1 34.9 6.2 15 17.1 SSE 7 13 4 7 1009.8 1009.0 0.0
18/04:30pm 38.3 36.3 6.1 14 17.9 WSW 6 11 3 6 1009.6 1008.8 0.0
18/04:00pm 37.7 34.8 4.6 13 17.9 NNW 9 15 5 8 1009.8 1009.0 0.0
18/03:30pm 37.1 33.7 4.1 13 17.7 SE 11 20 6 11 1010.0 1009.2 0.0

Other Formats:

Comma delimited format used in spreadsheet applications
http://www.bom.gov.au/fwo/IDD60801/IDD60801.94143.axf

JavaScript Object Notation format (JSON) in row-major order
http://www.bom.gov.au/fwo/IDD60801/IDD60801.94143.json